Página principal
METAR-TAF:

METAR-TAF

Aeroportos :

Jidá, Arábia Saudita

Aeroporto Internacional Rei Abdulaziz

latitude: 21-42N, longitude: 039-11E, altura: 15 m

Observação actual do tempo

O boletim foi feito há 1 hora e 12 minutos, às 14:00 UTC
Vento 10 kt de oes-noroeste
Temperatura 28°C
Humidade 32%
Pressão 1012 hPa
Visibilidade 10 km ou mais
sem nuvens abaixo de 1500 metros e sem cumulonimbus

METAR: OEJN 161400Z 30010KT CAVOK 28/10 Q1012 NOSIG

Hora: 18:12 (15:12 UTC)

Previsão

O boletim foi feito há 4 horas e 12 minutos, às 11:00 UTC
Previsão válida de 16 às 12 UTC a 17 às 18 UTC
Vento 14 kt de oeste
Visibilidade 10 km ou mais
sem nuvens abaixo de 1500 metros e sem cumulonimbus
Tornando-se
de 16 às 18 UTC a 16 às 20 UTC
Vento 8 kt de norte

TAF: OEJN 161100Z 1612/1718 28014KT CAVOK BECMG 1618/1620 35008KT

Observações e previsões do tempo de mais de 4000 aeroportos (mensagens METAR e TAF).

As estações disponíveis são os pontos amarelos e vermelhos sobre o mapa.

Mova o rato sobre o mapa para ver o nome da estação.

Depois clique no ponto para visualizar as observações e previsões meteorológicas.

Para alterar o mapa : clique nos botões verdes com uma cruz preta para aumentar o zoom; no botão verde com uma pitada de zoom; ou nas setas verdes para mapas adjacentes.


METAR-TAF: